createdAt,value
2022-10-11T00:02:39.085Z,7
2022-10-11T00:31:22.708Z,7
2022-10-11T01:00:15.515Z,7
2022-10-11T01:29:09.255Z,7
2022-10-11T01:57:59.928Z,7
2022-10-11T02:26:53.602Z,7
2022-10-11T02:55:48.585Z,7
2022-10-11T03:24:41.569Z,8
2022-10-11T03:53:34.541Z,7
2022-10-11T04:22:28.161Z,8
2022-10-11T04:51:29.158Z,8
2022-10-11T05:20:07.563Z,9
2022-10-11T05:48:53.988Z,9
2022-10-11T06:17:34.852Z,10
2022-10-11T06:46:08.039Z,11
2022-10-11T07:14:38.259Z,11
2022-10-11T07:43:26.683Z,12
2022-10-11T08:12:14.786Z,13
2022-10-11T08:40:55.468Z,14
2022-10-11T09:09:45.543Z,14
2022-10-11T09:38:12.939Z,13
2022-10-11T10:06:29.607Z,13
2022-10-11T10:35:07.516Z,12
2022-10-11T11:03:44.312Z,10
2022-10-11T11:32:20.451Z,11
2022-10-11T12:01:15.716Z,10
2022-10-11T12:30:07.201Z,8
2022-10-11T12:58:46.475Z,10
2022-10-11T13:27:34.082Z,9
2022-10-11T13:56:10.966Z,10
2022-10-11T14:24:35.046Z,9
2022-10-11T14:53:15.451Z,10
2022-10-11T15:22:00.057Z,12
2022-10-11T15:50:33.193Z,12
2022-10-11T16:19:12.324Z,11
2022-10-11T16:47:43.831Z,11
2022-10-11T17:16:24.245Z,11
2022-10-11T17:45:16.782Z,12
2022-10-11T18:14:13.446Z,13
2022-10-11T18:43:05.230Z,13
2022-10-11T19:11:43.133Z,13
2022-10-11T19:40:30.207Z,13
2022-10-11T20:09:24.282Z,13
2022-10-11T20:37:27.342Z,12
2022-10-11T21:06:06.367Z,10
2022-10-11T22:03:30.154Z,8
2022-10-11T22:32:19.854Z,6
2022-10-11T23:00:41.254Z,6
2022-10-11T23:29:17.243Z,6
2022-10-11T23:57:47.671Z,6
